sensor_id;sensor_type;location;lat;lon;timestamp;temperature;humidity
19552;DHT22;9921;47.186;9.778;2024-03-23T00:54:03;10.90;99.90
19552;DHT22;9921;47.186;9.778;2024-03-23T00:56:29;10.80;99.90
19552;DHT22;9921;47.186;9.778;2024-03-23T00:58:55;10.70;99.90
19552;DHT22;9921;47.186;9.778;2024-03-23T01:01:21;10.80;99.90
19552;DHT22;9921;47.186;9.778;2024-03-23T01:03:48;10.80;99.90
19552;DHT22;9921;47.186;9.778;2024-03-23T01:06:14;10.70;99.90
19552;DHT22;9921;47.186;9.778;2024-03-23T01:08:42;10.60;99.90
19552;DHT22;9921;47.186;9.778;2024-03-23T01:11:08;10.50;99.90
19552;DHT22;9921;47.186;9.778;2024-03-23T01:13:35;10.30;99.90
19552;DHT22;9921;47.186;9.778;2024-03-23T01:16:00;10.30;99.90
19552;DHT22;9921;47.186;9.778;2024-03-23T01:18:27;10.20;99.90
19552;DHT22;9921;47.186;9.778;2024-03-23T01:20:53;10.00;99.90
19552;DHT22;9921;47.186;9.778;2024-03-23T01:23:20;9.90;99.90
19552;DHT22;9921;47.186;9.778;2024-03-23T01:25:52;9.90;99.90
19552;DHT22;9921;47.186;9.778;2024-03-23T01:28:20;9.90;99.90
19552;DHT22;9921;47.186;9.778;2024-03-23T01:30:45;10.00;99.90
19552;DHT22;9921;47.186;9.778;2024-03-23T01:33:12;10.00;99.90
19552;DHT22;9921;47.186;9.778;2024-03-23T01:35:38;10.00;99.90
19552;DHT22;9921;47.186;9.778;2024-03-23T01:38:05;10.00;99.90
19552;DHT22;9921;47.186;9.778;2024-03-23T01:40:31;9.90;99.90
19552;DHT22;9921;47.186;9.778;2024-03-23T01:43:05;9.90;99.90
19552;DHT22;9921;47.186;9.778;2024-03-23T01:45:31;9.90;99.90
19552;DHT22;9921;47.186;9.778;2024-03-23T01:47:58;9.90;99.90
19552;DHT22;9921;47.186;9.778;2024-03-23T01:50:24;10.00;99.90
19552;DHT22;9921;47.186;9.778;2024-03-23T01:52:51;9.90;99.90
19552;DHT22;9921;47.186;9.778;2024-03-23T01:55:17;9.90;99.90
19552;DHT22;9921;47.186;9.778;2024-03-23T01:57:44;9.80;99.90
19552;DHT22;9921;47.186;9.778;2024-03-23T02:00:13;9.80;99.90
19552;DHT22;9921;47.186;9.778;2024-03-23T02:02:43;9.80;99.90
19552;DHT22;9921;47.186;9.778;2024-03-23T02:05:10;9.90;99.90
19552;DHT22;9921;47.186;9.778;2024-03-23T02:07:37;9.80;99.90
19552;DHT22;9921;47.186;9.778;2024-03-23T02:10:04;9.80;99.90
19552;DHT22;9921;47.186;9.778;2024-03-23T02:12:31;9.50;99.90
19552;DHT22;9921;47.186;9.778;2024-03-23T02:14:57;9.30;99.90
19552;DHT22;9921;47.186;9.778;2024-03-23T02:17:25;9.30;99.90
19552;DHT22;9921;47.186;9.778;2024-03-23T02:19:51;9.30;99.90
19552;DHT22;9921;47.186;9.778;2024-03-23T02:22:18;9.30;99.90
19552;DHT22;9921;47.186;9.778;2024-03-23T02:24:45;9.40;99.90
19552;DHT22;9921;47.186;9.778;2024-03-23T02:27:12;9.50;99.90
19552;DHT22;9921;47.186;9.778;2024-03-23T02:29:38;9.40;99.90
19552;DHT22;9921;47.186;9.778;2024-03-23T02:32:05;9.30;99.90
19552;DHT22;9921;47.186;9.778;2024-03-23T02:34:31;9.10;99.90
19552;DHT22;9921;47.186;9.778;2024-03-23T02:36:58;9.20;99.90
19552;DHT22;9921;47.186;9.778;2024-03-23T02:39:24;9.30;99.90
19552;DHT22;9921;47.186;9.778;2024-03-23T02:41:52;9.40;99.90
19552;DHT22;9921;47.186;9.778;2024-03-23T02:44:18;9.50;99.90
19552;DHT22;9921;47.186;9.778;2024-03-23T02:46:44;9.70;99.90
19552;DHT22;9921;47.186;9.778;2024-03-23T02:49:10;9.90;99.90
19552;DHT22;9921;47.186;9.778;2024-03-23T02:51:37;9.90;99.90
19552;DHT22;9921;47.186;9.778;2024-03-23T02:54:03;9.80;99.90
19552;DHT22;9921;47.186;9.778;2024-03-23T02:56:32;9.80;99.90
19552;DHT22;9921;47.186;9.778;2024-03-23T02:59:00;9.70;99.90
19552;DHT22;9921;47.186;9.778;2024-03-23T03:01:26;9.70;99.90
19552;DHT22;9921;47.186;9.778;2024-03-23T03:03:52;9.70;99.90
19552;DHT22;9921;47.186;9.778;2024-03-23T03:06:26;9.60;99.90
19552;DHT22;9921;47.186;9.778;2024-03-23T03:08:52;9.60;99.90
19552;DHT22;9921;47.186;9.778;2024-03-23T03:11:18;9.70;99.90
19552;DHT22;9921;47.186;9.778;2024-03-23T03:13:44;9.70;99.90
19552;DHT22;9921;47.186;9.778;2024-03-23T03:16:12;9.70;99.90
19552;DHT22;9921;47.186;9.778;2024-03-23T03:18:38;9.60;99.90
19552;DHT22;9921;47.186;9.778;2024-03-23T03:21:06;9.40;99.90
19552;DHT22;9921;47.186;9.778;2024-03-23T03:23:36;9.20;99.90
19552;DHT22;9921;47.186;9.778;2024-03-23T03:26:03;9.20;99.90
19552;DHT22;9921;47.186;9.778;2024-03-23T03:28:29;9.10;99.90
19552;DHT22;9921;47.186;9.778;2024-03-23T03:30:56;9.10;99.90
19552;DHT22;9921;47.186;9.778;2024-03-23T03:33:23;9.10;99.90
19552;DHT22;9921;47.186;9.778;2024-03-23T03:35:50;9.10;99.90
19552;DHT22;9921;47.186;9.778;2024-03-23T03:38:18;9.10;99.90
19552;DHT22;9921;47.186;9.778;2024-03-23T03:40:45;9.00;99.90
19552;DHT22;9921;47.186;9.778;2024-03-23T03:43:10;9.00;99.90
19552;DHT22;9921;47.186;9.778;2024-03-23T03:45:37;9.00;99.90
19552;DHT22;9921;47.186;9.778;2024-03-23T03:48:04;9.10;99.90
19552;DHT22;9921;47.186;9.778;2024-03-23T03:50:32;9.00;99.90
19552;DHT22;9921;47.186;9.778;2024-03-23T03:52:58;9.00;99.90
19552;DHT22;9921;47.186;9.778;2024-03-23T03:55:25;9.00;99.90
19552;DHT22;9921;47.186;9.778;2024-03-23T03:57:51;8.90;99.90
19552;DHT22;9921;47.186;9.778;2024-03-23T04:00:18;9.00;99.90
19552;DHT22;9921;47.186;9.778;2024-03-23T04:02:44;9.00;99.90
19552;DHT22;9921;47.186;9.778;2024-03-23T04:05:11;9.00;99.90
19552;DHT22;9921;47.186;9.778;2024-03-23T04:07:38;9.00;99.90
19552;DHT22;9921;47.186;9.778;2024-03-23T04:10:06;9.00;99.90
19552;DHT22;9921;47.186;9.778;2024-03-23T04:12:33;8.90;99.90
19552;DHT22;9921;47.186;9.778;2024-03-23T04:15:00;8.90;99.90
19552;DHT22;9921;47.186;9.778;2024-03-23T04:17:29;8.90;99.90
19552;DHT22;9921;47.186;9.778;2024-03-23T04:19:57;8.90;99.90
19552;DHT22;9921;47.186;9.778;2024-03-23T04:22:23;8.80;99.90
19552;DHT22;9921;47.186;9.778;2024-03-23T04:24:53;8.80;99.90
19552;DHT22;9921;47.186;9.778;2024-03-23T04:27:18;8.80;99.90
19552;DHT22;9921;47.186;9.778;2024-03-23T04:29:47;9.10;99.90
19552;DHT22;9921;47.186;9.778;2024-03-23T04:32:13;9.30;99.90
19552;DHT22;9921;47.186;9.778;2024-03-23T04:34:40;9.40;99.90
19552;DHT22;9921;47.186;9.778;2024-03-23T04:37:06;9.40;99.90
19552;DHT22;9921;47.186;9.778;2024-03-23T04:39:34;9.30;99.90
19552;DHT22;9921;47.186;9.778;2024-03-23T04:42:02;9.30;99.90
19552;DHT22;9921;47.186;9.778;2024-03-23T04:44:29;9.30;99.90
19552;DHT22;9921;47.186;9.778;2024-03-23T04:46:56;9.20;99.90
19552;DHT22;9921;47.186;9.778;2024-03-23T04:49:24;9.10;99.90
19552;DHT22;9921;47.186;9.778;2024-03-23T04:51:49;9.00;99.90
19552;DHT22;9921;47.186;9.778;2024-03-23T04:54:16;9.00;99.90
19552;DHT22;9921;47.186;9.778;2024-03-23T04:56:43;9.00;99.90
19552;DHT22;9921;47.186;9.778;2024-03-23T04:59:10;9.20;99.90
19552;DHT22;9921;47.186;9.778;2024-03-23T05:01:37;9.40;99.90
19552;DHT22;9921;47.186;9.778;2024-03-23T05:04:07;9.50;99.90
19552;DHT22;9921;47.186;9.778;2024-03-23T05:06:34;9.50;99.90
19552;DHT22;9921;47.186;9.778;2024-03-23T05:09:00;9.40;99.90
19552;DHT22;9921;47.186;9.778;2024-03-23T05:11:28;9.40;99.90
19552;DHT22;9921;47.186;9.778;2024-03-23T05:13:54;9.40;99.90
19552;DHT22;9921;47.186;9.778;2024-03-23T05:16:23;9.50;99.90
19552;DHT22;9921;47.186;9.778;2024-03-23T05:18:49;9.70;99.90
19552;DHT22;9921;47.186;9.778;2024-03-23T05:21:16;9.80;99.90
19552;DHT22;9921;47.186;9.778;2024-03-23T05:23:41;9.90;99.90
19552;DHT22;9921;47.186;9.778;2024-03-23T05:26:09;9.80;99.90
19552;DHT22;9921;47.186;9.778;2024-03-23T05:28:35;9.80;99.90
19552;DHT22;9921;47.186;9.778;2024-03-23T05:31:02;9.90;99.90
19552;DHT22;9921;47.186;9.778;2024-03-23T05:33:29;10.00;99.90
19552;DHT22;9921;47.186;9.778;2024-03-23T05:35:57;10.00;99.90
19552;DHT22;9921;47.186;9.778;2024-03-23T05:38:23;10.00;99.90
19552;DHT22;9921;47.186;9.778;2024-03-23T05:40:53;10.00;99.90
19552;DHT22;9921;47.186;9.778;2024-03-23T05:43:19;10.00;99.90
19552;DHT22;9921;47.186;9.778;2024-03-23T05:45:52;10.10;99.90
19552;DHT22;9921;47.186;9.778;2024-03-23T05:48:18;10.20;99.90
19552;DHT22;9921;47.186;9.778;2024-03-23T05:50:46;10.20;99.90
19552;DHT22;9921;47.186;9.778;2024-03-23T05:53:12;10.30;99.90
19552;DHT22;9921;47.186;9.778;2024-03-23T05:55:39;10.40;99.90
19552;DHT22;9921;47.186;9.778;2024-03-23T05:58:05;10.30;99.90
19552;DHT22;9921;47.186;9.778;2024-03-23T06:00:32;10.40;99.90
19552;DHT22;9921;47.186;9.778;2024-03-23T06:02:58;10.40;99.90
19552;DHT22;9921;47.186;9.778;2024-03-23T06:05:24;10.50;99.90
19552;DHT22;9921;47.186;9.778;2024-03-23T06:07:51;10.60;99.90
19552;DHT22;9921;47.186;9.778;2024-03-23T06:10:18;10.80;99.90
19552;DHT22;9921;47.186;9.778;2024-03-23T06:12:46;10.80;99.90
19552;DHT22;9921;47.186;9.778;2024-03-23T06:15:14;10.80;99.90
19552;DHT22;9921;47.186;9.778;2024-03-23T06:17:40;10.70;99.90
19552;DHT22;9921;47.186;9.778;2024-03-23T06:20:08;10.60;99.90
19552;DHT22;9921;47.186;9.778;2024-03-23T06:22:33;10.50;99.90
19552;DHT22;9921;47.186;9.778;2024-03-23T06:25:02;10.50;99.90
19552;DHT22;9921;47.186;9.778;2024-03-23T06:27:28;10.50;99.90
19552;DHT22;9921;47.186;9.778;2024-03-23T06:29:55;10.60;99.90
19552;DHT22;9921;47.186;9.778;2024-03-23T06:32:21;10.60;99.90
19552;DHT22;9921;47.186;9.778;2024-03-23T06:34:48;10.60;99.90
19552;DHT22;9921;47.186;9.778;2024-03-23T06:37:14;10.70;99.90
19552;DHT22;9921;47.186;9.778;2024-03-23T06:39:40;10.70;99.90
19552;DHT22;9921;47.186;9.778;2024-03-23T06:42:08;10.90;99.90
19552;DHT22;9921;47.186;9.778;2024-03-23T06:44:34;10.90;99.90
19552;DHT22;9921;47.186;9.778;2024-03-23T06:47:00;11.10;99.90
19552;DHT22;9921;47.186;9.778;2024-03-23T06:49:28;11.20;99.90
19552;DHT22;9921;47.186;9.778;2024-03-23T06:51:54;11.40;99.90
19552;DHT22;9921;47.186;9.778;2024-03-23T06:54:21;11.50;99.90
19552;DHT22;9921;47.186;9.778;2024-03-23T06:56:47;11.50;99.90
19552;DHT22;9921;47.186;9.778;2024-03-23T06:59:15;11.40;99.90
19552;DHT22;9921;47.186;9.778;2024-03-23T07:01:41;11.50;99.90
19552;DHT22;9921;47.186;9.778;2024-03-23T07:04:08;11.50;99.90
19552;DHT22;9921;47.186;9.778;2024-03-23T07:06:33;11.60;99.90
19552;DHT22;9921;47.186;9.778;2024-03-23T07:09:00;11.60;99.90
19552;DHT22;9921;47.186;9.778;2024-03-23T07:11:26;11.70;99.90
19552;DHT22;9921;47.186;9.778;2024-03-23T07:13:53;11.80;99.90
19552;DHT22;9921;47.186;9.778;2024-03-23T07:16:21;11.90;99.90
19552;DHT22;9921;47.186;9.778;2024-03-23T07:18:50;12.00;99.90
19552;DHT22;9921;47.186;9.778;2024-03-23T07:21:16;12.00;99.90
19552;DHT22;9921;47.186;9.778;2024-03-23T07:23:43;12.00;99.90
19552;DHT22;9921;47.186;9.778;2024-03-23T07:26:10;12.00;99.90
19552;DHT22;9921;47.186;9.778;2024-03-23T07:28:37;12.00;99.90
19552;DHT22;9921;47.186;9.778;2024-03-23T07:31:04;12.00;99.90
19552;DHT22;9921;47.186;9.778;2024-03-23T07:33:33;12.00;99.90
19552;DHT22;9921;47.186;9.778;2024-03-23T07:35:59;12.00;99.90
19552;DHT22;9921;47.186;9.778;2024-03-23T07:38:26;12.20;99.90
19552;DHT22;9921;47.186;9.778;2024-03-23T07:40:55;12.40;99.90
19552;DHT22;9921;47.186;9.778;2024-03-23T07:43:28;12.60;99.90
19552;DHT22;9921;47.186;9.778;2024-03-23T07:45:54;12.90;99.90
19552;DHT22;9921;47.186;9.778;2024-03-23T07:48:21;13.10;99.90
19552;DHT22;9921;47.186;9.778;2024-03-23T07:51:00;13.40;99.90
19552;DHT22;9921;47.186;9.778;2024-03-23T07:53:27;13.60;99.90
19552;DHT22;9921;47.186;9.778;2024-03-23T07:55:57;13.80;99.90
19552;DHT22;9921;47.186;9.778;2024-03-23T07:58:25;14.00;99.90
19552;DHT22;9921;47.186;9.778;2024-03-23T08:00:52;14.20;99.90
19552;DHT22;9921;47.186;9.778;2024-03-23T08:03:19;14.30;99.90
19552;DHT22;9921;47.186;9.778;2024-03-23T08:05:45;14.30;99.90
19552;DHT22;9921;47.186;9.778;2024-03-23T08:08:14;14.50;99.90
19552;DHT22;9921;47.186;9.778;2024-03-23T08:10:48;14.70;99.90
19552;DHT22;9921;47.186;9.778;2024-03-23T08:13:14;14.80;99.90
19552;DHT22;9921;47.186;9.778;2024-03-23T08:15:40;14.90;99.90
19552;DHT22;9921;47.186;9.778;2024-03-23T08:18:07;14.90;99.90
19552;DHT22;9921;47.186;9.778;2024-03-23T08:20:33;14.80;99.90
19552;DHT22;9921;47.186;9.778;2024-03-23T08:23:00;14.70;99.90
19552;DHT22;9921;47.186;9.778;2024-03-23T08:25:27;14.50;99.90
19552;DHT22;9921;47.186;9.778;2024-03-23T08:27:54;14.30;99.90
19552;DHT22;9921;47.186;9.778;2024-03-23T08:30:20;14.20;99.90
19552;DHT22;9921;47.186;9.778;2024-03-23T08:32:46;14.10;99.90
19552;DHT22;9921;47.186;9.778;2024-03-23T08:35:12;14.00;99.90
19552;DHT22;9921;47.186;9.778;2024-03-23T08:37:39;13.90;99.90
19552;DHT22;9921;47.186;9.778;2024-03-23T08:40:06;13.80;99.90
19552;DHT22;9921;47.186;9.778;2024-03-23T08:42:35;13.70;99.90
19552;DHT22;9921;47.186;9.778;2024-03-23T08:45:01;13.60;99.90
19552;DHT22;9921;47.186;9.778;2024-03-23T08:47:28;13.50;99.90
19552;DHT22;9921;47.186;9.778;2024-03-23T08:49:54;13.50;99.90
19552;DHT22;9921;47.186;9.778;2024-03-23T08:52:20;13.50;99.90
19552;DHT22;9921;47.186;9.778;2024-03-23T08:54:48;13.50;99.90
19552;DHT22;9921;47.186;9.778;2024-03-23T08:57:15;13.50;99.90
19552;DHT22;9921;47.186;9.778;2024-03-23T08:59:42;13.50;99.90
19552;DHT22;9921;47.186;9.778;2024-03-23T09:02:09;13.40;99.90
19552;DHT22;9921;47.186;9.778;2024-03-23T09:04:35;13.40;99.90
19552;DHT22;9921;47.186;9.778;2024-03-23T09:07:02;13.40;99.90
19552;DHT22;9921;47.186;9.778;2024-03-23T09:09:27;13.40;99.90
19552;DHT22;9921;47.186;9.778;2024-03-23T09:11:54;13.40;99.90
19552;DHT22;9921;47.186;9.778;2024-03-23T09:14:21;13.40;99.90
19552;DHT22;9921;47.186;9.778;2024-03-23T09:16:51;13.40;99.90
19552;DHT22;9921;47.186;9.778;2024-03-23T09:19:17;13.40;99.90
19552;DHT22;9921;47.186;9.778;2024-03-23T09:21:44;13.40;99.90
19552;DHT22;9921;47.186;9.778;2024-03-23T09:24:09;13.30;99.90
19552;DHT22;9921;47.186;9.778;2024-03-23T09:26:36;13.20;99.90
19552;DHT22;9921;47.186;9.778;2024-03-23T09:29:02;13.20;99.90
19552;DHT22;9921;47.186;9.778;2024-03-23T09:31:29;13.20;99.90
19552;DHT22;9921;47.186;9.778;2024-03-23T09:33:58;13.10;99.90
19552;DHT22;9921;47.186;9.778;2024-03-23T09:36:25;13.10;99.90
19552;DHT22;9921;47.186;9.778;2024-03-23T09:38:51;13.20;99.90
19552;DHT22;9921;47.186;9.778;2024-03-23T09:41:18;13.20;99.90
19552;DHT22;9921;47.186;9.778;2024-03-23T09:43:44;13.30;99.90
19552;DHT22;9921;47.186;9.778;2024-03-23T09:46:13;13.20;99.90
19552;DHT22;9921;47.186;9.778;2024-03-23T09:48:39;13.10;99.90
19552;DHT22;9921;47.186;9.778;2024-03-23T09:51:08;13.00;99.90
19552;DHT22;9921;47.186;9.778;2024-03-23T09:53:36;12.80;99.90
19552;DHT22;9921;47.186;9.778;2024-03-23T09:56:04;12.60;99.90
19552;DHT22;9921;47.186;9.778;2024-03-23T09:58:30;12.40;99.90
19552;DHT22;9921;47.186;9.778;2024-03-23T10:00:57;12.30;99.90
19552;DHT22;9921;47.186;9.778;2024-03-23T10:03:23;12.20;99.90
19552;DHT22;9921;47.186;9.778;2024-03-23T10:06:00;12.10;99.90
19552;DHT22;9921;47.186;9.778;2024-03-23T10:08:29;12.00;99.90
19552;DHT22;9921;47.186;9.778;2024-03-23T10:10:56;11.80;99.90
19552;DHT22;9921;47.186;9.778;2024-03-23T10:13:26;11.70;99.90
19552;DHT22;9921;47.186;9.778;2024-03-23T10:15:57;11.70;99.90
19552;DHT22;9921;47.186;9.778;2024-03-23T10:18:24;11.60;99.90
19552;DHT22;9921;47.186;9.778;2024-03-23T10:20:52;11.50;99.90
19552;DHT22;9921;47.186;9.778;2024-03-23T10:23:19;11.40;99.90
19552;DHT22;9921;47.186;9.778;2024-03-23T10:25:47;11.30;99.90
19552;DHT22;9921;47.186;9.778;2024-03-23T10:28:13;11.30;99.90
19552;DHT22;9921;47.186;9.778;2024-03-23T10:30:40;11.20;99.90
19552;DHT22;9921;47.186;9.778;2024-03-23T10:33:09;11.10;99.90
19552;DHT22;9921;47.186;9.778;2024-03-23T10:35:37;10.90;99.90
19552;DHT22;9921;47.186;9.778;2024-03-23T10:38:05;10.70;99.90
19552;DHT22;9921;47.186;9.778;2024-03-23T10:40:34;10.50;99.90
19552;DHT22;9921;47.186;9.778;2024-03-23T10:43:03;10.30;99.90
19552;DHT22;9921;47.186;9.778;2024-03-23T10:45:30;10.20;99.90
19552;DHT22;9921;47.186;9.778;2024-03-23T10:47:56;10.20;99.90
19552;DHT22;9921;47.186;9.778;2024-03-23T10:50:23;10.00;99.90
19552;DHT22;9921;47.186;9.778;2024-03-23T10:52:49;10.00;99.90
19552;DHT22;9921;47.186;9.778;2024-03-23T10:55:19;9.90;99.90
19552;DHT22;9921;47.186;9.778;2024-03-23T10:57:50;9.80;99.90
19552;DHT22;9921;47.186;9.778;2024-03-23T11:00:19;9.80;99.90
19552;DHT22;9921;47.186;9.778;2024-03-23T11:02:47;9.80;99.90
19552;DHT22;9921;47.186;9.778;2024-03-23T11:05:35;9.80;99.90
19552;DHT22;9921;47.186;9.778;2024-03-23T11:08:01;9.90;99.90
19552;DHT22;9921;47.186;9.778;2024-03-23T11:10:29;9.90;99.90
19552;DHT22;9921;47.186;9.778;2024-03-23T11:12:55;9.90;99.90
19552;DHT22;9921;47.186;9.778;2024-03-23T11:15:24;9.90;99.90
19552;DHT22;9921;47.186;9.778;2024-03-23T11:18:03;9.80;99.90
19552;DHT22;9921;47.186;9.778;2024-03-23T11:20:33;9.80;99.90
19552;DHT22;9921;47.186;9.778;2024-03-23T11:23:00;9.80;99.90
19552;DHT22;9921;47.186;9.778;2024-03-23T11:25:27;9.70;99.90
19552;DHT22;9921;47.186;9.778;2024-03-23T11:27:54;9.70;99.90
19552;DHT22;9921;47.186;9.778;2024-03-23T11:30:24;9.70;99.90
19552;DHT22;9921;47.186;9.778;2024-03-23T11:32:52;9.60;99.90
19552;DHT22;9921;47.186;9.778;2024-03-23T11:35:29;9.60;99.90
19552;DHT22;9921;47.186;9.778;2024-03-23T11:38:04;9.50;99.90
19552;DHT22;9921;47.186;9.778;2024-03-23T11:40:31;9.50;99.90
19552;DHT22;9921;47.186;9.778;2024-03-23T11:42:58;9.50;99.90
19552;DHT22;9921;47.186;9.778;2024-03-23T11:45:26;9.40;99.90
19552;DHT22;9921;47.186;9.778;2024-03-23T11:48:03;9.40;99.90
19552;DHT22;9921;47.186;9.778;2024-03-23T11:50:30;9.30;99.90
19552;DHT22;9921;47.186;9.778;2024-03-23T11:53:16;9.30;99.90
19552;DHT22;9921;47.186;9.778;2024-03-23T11:55:47;9.20;99.90
19552;DHT22;9921;47.186;9.778;2024-03-23T11:58:14;9.20;99.90
19552;DHT22;9921;47.186;9.778;2024-03-23T12:00:49;9.10;99.90
19552;DHT22;9921;47.186;9.778;2024-03-23T12:03:16;9.00;99.90
19552;DHT22;9921;47.186;9.778;2024-03-23T12:05:48;8.80;99.90
19552;DHT22;9921;47.186;9.778;2024-03-23T12:08:22;8.80;99.90
19552;DHT22;9921;47.186;9.778;2024-03-23T12:10:50;8.80;99.90
19552;DHT22;9921;47.186;9.778;2024-03-23T12:13:18;8.90;99.90
19552;DHT22;9921;47.186;9.778;2024-03-23T12:15:47;8.90;99.90
19552;DHT22;9921;47.186;9.778;2024-03-23T12:18:13;8.90;99.90
19552;DHT22;9921;47.186;9.778;2024-03-23T12:20:40;9.00;99.90
19552;DHT22;9921;47.186;9.778;2024-03-23T12:23:07;9.10;99.90
19552;DHT22;9921;47.186;9.778;2024-03-23T12:25:35;9.10;99.90
19552;DHT22;9921;47.186;9.778;2024-03-23T12:28:02;9.10;99.90
19552;DHT22;9921;47.186;9.778;2024-03-23T12:30:28;9.20;99.90
19552;DHT22;9921;47.186;9.778;2024-03-23T12:32:56;9.20;99.90
19552;DHT22;9921;47.186;9.778;2024-03-23T12:35:23;9.20;99.90
19552;DHT22;9921;47.186;9.778;2024-03-23T12:37:49;9.20;99.90
19552;DHT22;9921;47.186;9.778;2024-03-23T12:40:15;9.10;99.90
19552;DHT22;9921;47.186;9.778;2024-03-23T12:42:41;9.00;99.90
19552;DHT22;9921;47.186;9.778;2024-03-23T12:45:09;9.00;99.90
19552;DHT22;9921;47.186;9.778;2024-03-23T12:47:35;8.90;99.90
19552;DHT22;9921;47.186;9.778;2024-03-23T12:50:04;8.90;99.90
19552;DHT22;9921;47.186;9.778;2024-03-23T12:52:31;8.90;99.90
19552;DHT22;9921;47.186;9.778;2024-03-23T12:54:58;9.00;99.90
19552;DHT22;9921;47.186;9.778;2024-03-23T12:57:24;9.00;99.90
19552;DHT22;9921;47.186;9.778;2024-03-23T12:59:51;9.00;99.90
19552;DHT22;9921;47.186;9.778;2024-03-23T13:02:18;9.00;99.90
19552;DHT22;9921;47.186;9.778;2024-03-23T13:04:46;8.90;99.90
19552;DHT22;9921;47.186;9.778;2024-03-23T13:07:13;9.00;99.90
19552;DHT22;9921;47.186;9.778;2024-03-23T13:09:40;9.00;99.90
19552;DHT22;9921;47.186;9.778;2024-03-23T13:12:07;8.90;99.90
19552;DHT22;9921;47.186;9.778;2024-03-23T13:14:34;8.90;99.90
19552;DHT22;9921;47.186;9.778;2024-03-23T13:17:00;8.90;99.90
19552;DHT22;9921;47.186;9.778;2024-03-23T13:19:27;8.80;99.90
19552;DHT22;9921;47.186;9.778;2024-03-23T13:21:56;8.80;99.90
19552;DHT22;9921;47.186;9.778;2024-03-23T13:24:25;8.90;99.90
19552;DHT22;9921;47.186;9.778;2024-03-23T13:26:51;9.00;99.90
19552;DHT22;9921;47.186;9.778;2024-03-23T13:29:19;8.90;99.90
19552;DHT22;9921;47.186;9.778;2024-03-23T13:31:45;9.00;99.90
19552;DHT22;9921;47.186;9.778;2024-03-23T13:34:12;9.00;99.90
19552;DHT22;9921;47.186;9.778;2024-03-23T13:36:40;9.00;99.90
19552;DHT22;9921;47.186;9.778;2024-03-23T13:39:07;9.10;99.90
19552;DHT22;9921;47.186;9.778;2024-03-23T13:41:38;9.20;99.90
19552;DHT22;9921;47.186;9.778;2024-03-23T13:44:05;9.10;99.90
19552;DHT22;9921;47.186;9.778;2024-03-23T13:46:31;9.10;99.90
19552;DHT22;9921;47.186;9.778;2024-03-23T13:48:58;9.10;99.90
19552;DHT22;9921;47.186;9.778;2024-03-23T13:51:24;9.00;99.90
19552;DHT22;9921;47.186;9.778;2024-03-23T13:53:53;8.90;99.90
19552;DHT22;9921;47.186;9.778;2024-03-23T13:56:18;8.90;99.90
19552;DHT22;9921;47.186;9.778;2024-03-23T13:58:47;8.90;99.90
19552;DHT22;9921;47.186;9.778;2024-03-23T14:01:16;8.80;99.90
19552;DHT22;9921;47.186;9.778;2024-03-23T14:03:43;8.70;99.90
19552;DHT22;9921;47.186;9.778;2024-03-23T14:06:10;8.60;99.90
19552;DHT22;9921;47.186;9.778;2024-03-23T14:08:37;8.60;99.90
19552;DHT22;9921;47.186;9.778;2024-03-23T14:11:05;8.60;99.90
19552;DHT22;9921;47.186;9.778;2024-03-23T14:13:32;8.70;99.90
19552;DHT22;9921;47.186;9.778;2024-03-23T14:15:59;8.80;99.90
19552;DHT22;9921;47.186;9.778;2024-03-23T14:18:26;8.80;99.90
19552;DHT22;9921;47.186;9.778;2024-03-23T14:20:56;8.80;99.90
19552;DHT22;9921;47.186;9.778;2024-03-23T14:23:24;8.90;99.90
19552;DHT22;9921;47.186;9.778;2024-03-23T14:25:53;9.00;99.90
19552;DHT22;9921;47.186;9.778;2024-03-23T14:28:20;9.20;99.90
19552;DHT22;9921;47.186;9.778;2024-03-23T14:30:46;9.20;99.90
19552;DHT22;9921;47.186;9.778;2024-03-23T14:33:14;9.30;99.90
19552;DHT22;9921;47.186;9.778;2024-03-23T14:35:40;9.40;99.90
19552;DHT22;9921;47.186;9.778;2024-03-23T14:38:07;9.50;99.90
19552;DHT22;9921;47.186;9.778;2024-03-23T14:40:33;9.50;99.90
19552;DHT22;9921;47.186;9.778;2024-03-23T14:43:00;9.50;99.90
19552;DHT22;9921;47.186;9.778;2024-03-23T14:45:25;9.50;99.90
19552;DHT22;9921;47.186;9.778;2024-03-23T14:47:52;9.50;99.90
19552;DHT22;9921;47.186;9.778;2024-03-23T14:50:19;9.60;99.90
19552;DHT22;9921;47.186;9.778;2024-03-23T14:52:47;9.60;99.90
19552;DHT22;9921;47.186;9.778;2024-03-23T14:55:13;9.50;99.90
19552;DHT22;9921;47.186;9.778;2024-03-23T14:57:40;9.40;99.90
19552;DHT22;9921;47.186;9.778;2024-03-23T15:00:07;9.40;99.90
19552;DHT22;9921;47.186;9.778;2024-03-23T15:02:36;9.50;99.90
19552;DHT22;9921;47.186;9.778;2024-03-23T15:05:02;9.60;99.90
19552;DHT22;9921;47.186;9.778;2024-03-23T15:07:31;9.60;99.90
19552;DHT22;9921;47.186;9.778;2024-03-23T15:09:57;9.50;99.90
19552;DHT22;9921;47.186;9.778;2024-03-23T15:12:24;9.50;99.90
19552;DHT22;9921;47.186;9.778;2024-03-23T15:14:50;9.40;99.90
19552;DHT22;9921;47.186;9.778;2024-03-23T15:17:16;9.20;99.90
19552;DHT22;9921;47.186;9.778;2024-03-23T15:19:44;9.00;99.90
19552;DHT22;9921;47.186;9.778;2024-03-23T15:22:10;8.90;99.90
19552;DHT22;9921;47.186;9.778;2024-03-23T15:24:38;8.70;99.90
19552;DHT22;9921;47.186;9.778;2024-03-23T15:27:05;8.70;99.90
19552;DHT22;9921;47.186;9.778;2024-03-23T15:29:33;8.70;99.90
19552;DHT22;9921;47.186;9.778;2024-03-23T15:31:59;8.70;99.90
19552;DHT22;9921;47.186;9.778;2024-03-23T15:34:25;8.60;99.90
19552;DHT22;9921;47.186;9.778;2024-03-23T15:36:52;8.70;99.90
19552;DHT22;9921;47.186;9.778;2024-03-23T15:39:18;8.80;99.90
19552;DHT22;9921;47.186;9.778;2024-03-23T15:41:48;8.90;99.90
19552;DHT22;9921;47.186;9.778;2024-03-23T15:44:14;9.00;99.90
19552;DHT22;9921;47.186;9.778;2024-03-23T15:46:41;9.20;99.90
19552;DHT22;9921;47.186;9.778;2024-03-23T15:49:07;9.30;99.90
19552;DHT22;9921;47.186;9.778;2024-03-23T15:51:33;9.60;99.90
19552;DHT22;9921;47.186;9.778;2024-03-23T15:54:02;9.90;99.90
19552;DHT22;9921;47.186;9.778;2024-03-23T15:56:29;9.90;99.90
19552;DHT22;9921;47.186;9.778;2024-03-23T15:58:57;10.00;99.90
19552;DHT22;9921;47.186;9.778;2024-03-23T16:01:30;10.10;99.90
19552;DHT22;9921;47.186;9.778;2024-03-23T16:03:58;10.00;99.90
19552;DHT22;9921;47.186;9.778;2024-03-23T16:06:25;10.10;99.90
19552;DHT22;9921;47.186;9.778;2024-03-23T16:08:51;10.00;99.90
19552;DHT22;9921;47.186;9.778;2024-03-23T16:11:19;10.00;99.90
19552;DHT22;9921;47.186;9.778;2024-03-23T16:13:45;10.10;99.90
19552;DHT22;9921;47.186;9.778;2024-03-23T16:16:14;10.20;99.90
19552;DHT22;9921;47.186;9.778;2024-03-23T16:18:41;10.10;99.90
19552;DHT22;9921;47.186;9.778;2024-03-23T16:21:09;10.10;99.90
19552;DHT22;9921;47.186;9.778;2024-03-23T16:23:36;10.00;99.90
19552;DHT22;9921;47.186;9.778;2024-03-23T16:26:04;9.90;99.90
19552;DHT22;9921;47.186;9.778;2024-03-23T16:28:31;9.90;99.90
19552;DHT22;9921;47.186;9.778;2024-03-23T16:31:00;9.70;99.90
19552;DHT22;9921;47.186;9.778;2024-03-23T16:33:28;9.60;99.90
19552;DHT22;9921;47.186;9.778;2024-03-23T16:36:00;9.30;99.90
19552;DHT22;9921;47.186;9.778;2024-03-23T16:38:26;9.20;99.90
19552;DHT22;9921;47.186;9.778;2024-03-23T16:40:58;9.00;99.90
19552;DHT22;9921;47.186;9.778;2024-03-23T16:43:24;9.00;99.90
19552;DHT22;9921;47.186;9.778;2024-03-23T16:45:53;8.90;99.90
19552;DHT22;9921;47.186;9.778;2024-03-23T16:48:19;8.90;99.90